createdAt,value
2023-05-07T00:03:27.333Z,21.92
2023-05-07T00:08:30.364Z,21.91
2023-05-07T00:13:36.426Z,21.92
2023-05-07T00:18:39.285Z,21.91
2023-05-07T00:23:42.078Z,21.86
2023-05-07T00:28:46.269Z,21.82
2023-05-07T00:33:49.091Z,21.81
2023-05-07T00:38:51.884Z,21.79
2023-05-07T00:43:56.116Z,21.77
2023-05-07T00:54:02.116Z,21.65
2023-05-07T00:59:06.393Z,21.59
2023-05-07T01:04:09.219Z,21.60
2023-05-07T01:09:12.600Z,21.57
2023-05-07T01:14:16.744Z,21.50
2023-05-07T01:19:19.762Z,21.45
2023-05-07T01:24:24.325Z,21.41
2023-05-07T01:29:27.491Z,21.33
2023-05-07T01:34:31.212Z,21.33
2023-05-07T01:39:35.546Z,21.30
2023-05-07T01:44:38.334Z,21.26
2023-05-07T01:49:41.160Z,21.23
2023-05-07T01:54:45.470Z,21.20
2023-05-07T01:59:48.390Z,21.15
2023-05-07T02:04:51.245Z,21.11
2023-05-07T02:09:56.841Z,21.06
2023-05-07T02:14:59.851Z,21.02
2023-05-07T02:20:04.760Z,20.96
2023-05-07T02:25:09.840Z,20.95
2023-05-07T02:30:13.356Z,20.92
2023-05-07T02:35:16.179Z,20.89
2023-05-07T02:40:20.846Z,20.87
2023-05-07T02:45:23.660Z,20.83
2023-05-07T02:50:29.280Z,20.78
2023-05-07T02:55:33.542Z,20.77
2023-05-07T03:00:36.741Z,20.73
2023-05-07T03:05:52.099Z,20.72
2023-05-07T03:10:56.282Z,20.70
2023-05-07T03:15:59.147Z,20.66
2023-05-07T03:21:02.060Z,20.62
2023-05-07T03:26:06.457Z,20.63
2023-05-07T03:31:09.445Z,20.57
2023-05-07T03:36:12.289Z,20.55
2023-05-07T03:41:16.519Z,20.52
2023-05-07T03:46:21.395Z,20.47
2023-05-07T03:51:24.659Z,20.44
2023-05-07T03:56:29.051Z,20.42
2023-05-07T04:01:34.013Z,20.42
2023-05-07T04:06:36.966Z,20.41
2023-05-07T04:11:41.889Z,20.39
2023-05-07T04:16:47.114Z,20.38
2023-05-07T04:21:50.556Z,20.36
2023-05-07T04:26:56.014Z,20.33
2023-05-07T04:31:59.832Z,20.34
2023-05-07T04:37:03.747Z,20.32
2023-05-07T04:42:09.779Z,20.32
2023-05-07T04:47:12.934Z,20.30
2023-05-07T04:52:16.278Z,20.30
2023-05-07T04:57:20.664Z,20.27
2023-05-07T05:02:24.514Z,20.27
2023-05-07T05:07:28.043Z,20.28
2023-05-07T05:12:32.555Z,20.29
2023-05-07T05:17:37.610Z,20.29
2023-05-07T05:22:41.601Z,20.30
2023-05-07T05:27:46.756Z,20.29
2023-05-07T05:32:50.383Z,20.34
2023-05-07T05:37:53.263Z,20.36
2023-05-07T05:42:57.500Z,20.36
2023-05-07T05:48:01.161Z,20.40
2023-05-07T05:53:05.931Z,20.45
2023-05-07T05:58:11.161Z,20.45
2023-05-07T06:03:17.778Z,20.45
2023-05-07T06:08:20.816Z,20.44
2023-05-07T06:13:26.693Z,20.45
2023-05-07T06:18:30.132Z,20.47
2023-05-07T06:23:33.320Z,20.47
2023-05-07T06:28:39.165Z,20.37
2023-05-07T06:33:46.545Z,20.38
2023-05-07T06:38:50.363Z,20.53
2023-05-07T06:43:54.627Z,20.52
2023-05-07T06:49:12.861Z,20.45
2023-05-07T06:54:16.191Z,20.44
2023-05-07T06:59:22.040Z,20.47
2023-05-07T07:04:26.290Z,20.56
2023-05-07T07:09:36.976Z,20.66
2023-05-07T07:14:43.416Z,20.60
2023-05-07T07:19:46.709Z,20.53
2023-05-07T07:24:49.847Z,20.42
2023-05-07T07:29:55.934Z,20.39
2023-05-07T07:34:59.687Z,20.41
2023-05-07T07:40:04.573Z,20.38
2023-05-07T07:45:10.924Z,20.42
2023-05-07T07:50:28.062Z,20.52
2023-05-07T07:55:40.484Z,20.57
2023-05-07T08:00:45.179Z,20.66
2023-05-07T08:05:50.680Z,20.68
2023-05-07T08:10:53.725Z,20.65
2023-05-07T08:16:05.332Z,20.61
2023-05-07T08:21:09.212Z,20.60
2023-05-07T08:26:12.427Z,20.58
2023-05-07T08:31:17.013Z,20.55
2023-05-07T08:36:21.721Z,20.53
2023-05-07T08:41:24.756Z,20.57
2023-05-07T08:46:29.198Z,20.56
2023-05-07T08:51:32.748Z,20.57
2023-05-07T08:56:36.488Z,20.54
2023-05-07T09:01:40.904Z,20.54
2023-05-07T09:06:43.812Z,20.56
2023-05-07T09:11:49.482Z,20.58
2023-05-07T09:16:57.165Z,20.59
2023-05-07T09:22:01.184Z,20.57
2023-05-07T09:27:06.810Z,20.58
2023-05-07T09:32:11.609Z,20.59
2023-05-07T09:37:15.355Z,20.57
2023-05-07T09:42:25.530Z,20.54
2023-05-07T09:47:31.102Z,20.51
2023-05-07T09:52:36.183Z,20.52
2023-05-07T09:57:41.082Z,20.52
2023-05-07T10:02:49.296Z,20.55
2023-05-07T10:07:54.090Z,20.64
2023-05-07T10:12:58.424Z,20.64
2023-05-07T10:18:09.292Z,20.62
2023-05-07T10:23:15.287Z,20.70
2023-05-07T10:28:21.974Z,20.76
2023-05-07T10:33:28.469Z,20.82
2023-05-07T10:38:32.224Z,20.80
2023-05-07T10:43:41.798Z,20.74
2023-05-07T10:49:13.246Z,20.85
2023-05-07T10:54:48.465Z,21.03
2023-05-07T10:59:55.187Z,21.01
2023-05-07T11:05:23.759Z,21.11
2023-05-07T11:10:52.809Z,20.52
2023-05-07T11:16:20.290Z,20.12
2023-05-07T11:21:37.036Z,19.96
2023-05-07T11:26:58.382Z,20.39
2023-05-07T11:32:04.160Z,20.49
2023-05-07T11:37:13.688Z,20.56
2023-05-07T11:42:29.954Z,20.69
2023-05-07T11:47:33.082Z,20.82
2023-05-07T11:52:37.562Z,20.85
2023-05-07T11:57:40.439Z,20.89
2023-05-07T12:02:44.009Z,20.93
2023-05-07T12:07:48.333Z,21.00
2023-05-07T12:12:51.310Z,20.99
2023-05-07T12:17:54.230Z,21.14
2023-05-07T12:22:58.493Z,21.23
2023-05-07T12:28:02.548Z,21.29
2023-05-07T12:33:05.494Z,21.38
2023-05-07T12:38:11.653Z,21.42
2023-05-07T12:43:18.422Z,21.49
2023-05-07T12:48:21.315Z,21.41
2023-05-07T12:53:26.933Z,21.49
2023-05-07T12:58:30.563Z,21.62
2023-05-07T13:03:34.369Z,21.76
2023-05-07T13:08:41.132Z,21.85
2023-05-07T13:13:44.152Z,21.90
2023-05-07T13:18:47.027Z,22.03
2023-05-07T13:23:51.362Z,21.98
2023-05-07T13:28:54.256Z,21.90
2023-05-07T13:33:57.243Z,21.81
2023-05-07T13:39:01.553Z,21.76
2023-05-07T13:44:04.360Z,21.77
2023-05-07T13:49:07.183Z,21.79
2023-05-07T13:54:11.415Z,21.71
2023-05-07T13:59:15.317Z,21.82
2023-05-07T14:04:18.211Z,21.83
2023-05-07T14:09:22.349Z,21.79
2023-05-07T14:14:25.177Z,21.80
2023-05-07T14:19:27.982Z,21.84
2023-05-07T14:24:38.140Z,21.95
2023-05-07T14:29:42.032Z,21.99
2023-05-07T14:34:44.790Z,22.22
2023-05-07T14:39:50.648Z,22.29
2023-05-07T14:44:54.097Z,22.25
2023-05-07T14:49:58.337Z,22.24
2023-05-07T14:55:02.547Z,22.30
2023-05-07T15:00:06.038Z,22.37
2023-05-07T15:05:09.638Z,22.33
2023-05-07T15:10:14.053Z,22.34
2023-05-07T15:15:16.819Z,22.39
2023-05-07T15:20:20.281Z,22.48
2023-05-07T15:25:24.865Z,22.78
2023-05-07T15:30:28.308Z,24.00
2023-05-07T15:35:31.401Z,25.02
2023-05-07T15:40:36.276Z,25.53
2023-05-07T15:45:40.783Z,24.65
2023-05-07T15:50:43.861Z,24.34
2023-05-07T15:55:49.524Z,24.94
2023-05-07T16:00:53.367Z,26.51
2023-05-07T16:05:57.718Z,26.63
2023-05-07T16:11:02.162Z,27.07
2023-05-07T16:16:06.404Z,26.22
2023-05-07T16:21:09.265Z,26.58
2023-05-07T16:26:14.529Z,26.11
2023-05-07T16:31:17.397Z,26.48
2023-05-07T16:36:20.254Z,26.40
2023-05-07T16:41:24.425Z,25.66
2023-05-07T16:46:27.463Z,26.32
2023-05-07T16:51:30.345Z,26.69
2023-05-07T16:56:34.615Z,27.04
2023-05-07T17:01:37.476Z,26.83
2023-05-07T17:06:40.341Z,26.56
2023-05-07T17:11:44.583Z,26.93
2023-05-07T17:16:47.429Z,26.73
2023-05-07T17:21:50.262Z,26.66
2023-05-07T17:26:54.505Z,26.71
2023-05-07T17:31:57.451Z,25.93
2023-05-07T17:37:00.491Z,25.26
2023-05-07T17:42:05.037Z,24.95
2023-05-07T17:47:08.449Z,24.72
2023-05-07T17:52:11.476Z,24.41
2023-05-07T17:57:15.705Z,24.31
2023-05-07T18:02:18.841Z,24.14
2023-05-07T18:07:21.646Z,23.99
2023-05-07T18:12:27.449Z,23.97
2023-05-07T18:17:30.680Z,23.83
2023-05-07T18:22:33.492Z,23.57
2023-05-07T18:27:37.769Z,23.56
2023-05-07T18:32:41.190Z,23.45
2023-05-07T18:37:44.657Z,23.34
2023-05-07T18:42:48.796Z,23.30
2023-05-07T18:47:51.854Z,23.23
2023-05-07T18:52:54.733Z,23.14
2023-05-07T18:57:58.943Z,23.06
2023-05-07T19:03:01.864Z,23.06
2023-05-07T19:08:04.785Z,23.04
2023-05-07T19:13:10.901Z,22.98
2023-05-07T19:18:14.836Z,22.94
2023-05-07T19:23:17.879Z,22.91
2023-05-07T19:28:24.312Z,22.89
2023-05-07T19:33:29.820Z,22.88
2023-05-07T19:38:32.587Z,22.86
2023-05-07T19:43:38.333Z,22.86
2023-05-07T19:48:41.165Z,22.85
2023-05-07T19:53:44.999Z,22.79
2023-05-07T19:58:49.462Z,22.82
2023-05-07T20:03:52.588Z,22.80
2023-05-07T20:08:55.926Z,22.81
2023-05-07T20:14:00.139Z,22.78
2023-05-07T20:19:02.974Z,22.77
2023-05-07T20:24:06.795Z,22.73
2023-05-07T20:29:10.927Z,22.73
2023-05-07T20:34:13.898Z,22.72
2023-05-07T20:39:17.046Z,22.69
2023-05-07T20:44:21.231Z,22.66
2023-05-07T20:49:24.317Z,22.63
2023-05-07T20:54:28.253Z,22.65
2023-05-07T20:59:34.786Z,22.62
2023-05-07T21:04:38.085Z,22.60
2023-05-07T21:09:42.287Z,22.60
2023-05-07T21:14:46.408Z,22.60
2023-05-07T21:19:49.989Z,22.61
2023-05-07T21:24:52.825Z,22.55
2023-05-07T21:30:03.141Z,22.57
2023-05-07T21:35:06.939Z,22.56
2023-05-07T21:40:10.858Z,22.59
2023-05-07T21:45:15.569Z,22.60
2023-05-07T21:50:18.717Z,22.61
2023-05-07T21:55:21.518Z,22.62
2023-05-07T22:00:26.317Z,22.64
2023-05-07T22:05:29.219Z,22.60
2023-05-07T22:10:32.056Z,22.59
2023-05-07T22:15:45.530Z,22.52
2023-05-07T22:20:56.326Z,22.45
2023-05-07T22:25:59.295Z,22.40
2023-05-07T22:31:03.526Z,22.33
2023-05-07T22:36:07.651Z,22.28
2023-05-07T22:41:10.472Z,22.19
2023-05-07T22:46:14.667Z,22.12
2023-05-07T22:51:17.584Z,22.08
2023-05-07T22:56:20.487Z,22.02
2023-05-07T23:01:24.653Z,21.97
2023-05-07T23:06:27.566Z,21.91
2023-05-07T23:11:30.392Z,21.87
2023-05-07T23:16:34.788Z,21.80
2023-05-07T23:21:37.596Z,21.76
2023-05-07T23:26:40.383Z,21.72
2023-05-07T23:31:44.594Z,21.68
2023-05-07T23:36:47.442Z,21.65
2023-05-07T23:41:50.245Z,21.61
2023-05-07T23:46:54.366Z,21.56
2023-05-07T23:51:57.116Z,21.55
2023-05-07T23:57:00.041Z,21.52
